Airfield :
LOGIN :

Register | Disclaimer

   EN    FR    IT 

 










Legend :    VFR   Marginal VFR   IFR   Intensive IFR   Very Intensive IFR
Visi :
Ceiling :
>= 8 km
>= 3000ft
5 to 8 km
1000 to 3000 ft
1500m to 5 km
500 to 1000 ft
800 to 1500m
200 to 500 ft
< 800m
< 200 ft
Symbols :   Thunderstorms  Fog  Heavy snow  Heavy precipitations  Wind > 20 kt
SIGMETs :     Misc.  Thunderstorms  Icing  Turbulence  Mountain Waves  Volcanic Ashes







- Airport Elevation : 170 ft
- IATA code : BGO


ENBR - Bergen , Flesland

CURRENT METAR :
  • 182350Z 18023KT 5000 RA FEW002 SCT005 BKN013CB 06/04 Q0995 RERA RMK WIND 1200FT 18030G44KT

EXPIRED METARs :
  • 182250Z 17021KT 9000 FEW012 FEW014CB BKN019 06/04 Q0996 RMK WIND 1200FT 17027G41KT
  • 182220Z 16020KT 9999 FEW012 FEW014CB BKN016 06/04 Q0996 RMK WIND 1200FT 17026G37KT
  • 182150Z 16021KT 9999 FEW014CB BKN015 OVC050 06/04 Q0997 RMK WIND 1200FT 16028KT
  • 182120Z 16020KT 9999 FEW012 SCT016 BKN060 06/04 Q0998 RMK WIND 1200FT 16029G41KT

TAF TAF ENBR
Valid from the 19 at 00:00 until the 20 at 00:00 UTC


1900/1924 17020KT 9999 -SHRA SCT012 BKN018
TEMPO 1900/1902 17022G32KT
TEMPO 1900/1912 4000 SHRA BKN009 SCT018CB
BECMG 1903/1905 23012KT
BECMG 1908/1910 32015KT
No reported NOTAMs for that airfield.



MET'MAP, your aeronautical weather chart ! - Copyright ORBIFLY December 2007 - Disclaimer

ORBIFLY MET'MAP TEAM :

Programming & Development : Alexandra Zaïnal
Concept & Development : Baudouin d'Aumeries
Co-Development & Prog : Marc-Olivier Méhu
Technical & hardware support : Manuel Goepfert

Contact : metmap@orbifly.com




SOURCES & CREDITS :

   NOAA